sensor_id;sensor_type;location;lat;lon;timestamp;temperature;humidity
59923;DHT22;45778;51.142;3.732;2024-02-04T00:01:20;10.50;99.90
59923;DHT22;45778;51.142;3.732;2024-02-04T00:03:45;10.50;99.90
59923;DHT22;45778;51.142;3.732;2024-02-04T00:06:11;10.50;99.90
59923;DHT22;45778;51.142;3.732;2024-02-04T00:08:36;10.50;99.90
59923;DHT22;45778;51.142;3.732;2024-02-04T00:11:02;10.50;99.90
59923;DHT22;45778;51.142;3.732;2024-02-04T00:13:30;10.50;99.90
59923;DHT22;45778;51.142;3.732;2024-02-04T00:15:56;10.50;99.90
59923;DHT22;45778;51.142;3.732;2024-02-04T00:18:24;10.50;99.90
59923;DHT22;45778;51.142;3.732;2024-02-04T00:20:50;10.50;99.90
59923;DHT22;45778;51.142;3.732;2024-02-04T00:23:16;10.50;99.90
59923;DHT22;45778;51.142;3.732;2024-02-04T00:25:41;10.50;99.90
59923;DHT22;45778;51.142;3.732;2024-02-04T00:28:07;10.50;99.90
59923;DHT22;45778;51.142;3.732;2024-02-04T00:30:37;10.50;99.90
59923;DHT22;45778;51.142;3.732;2024-02-04T00:33:05;10.40;99.90
59923;DHT22;45778;51.142;3.732;2024-02-04T00:35:31;10.50;99.90
59923;DHT22;45778;51.142;3.732;2024-02-04T00:37:56;10.50;99.90
59923;DHT22;45778;51.142;3.732;2024-02-04T00:40:24;10.40;99.90
59923;DHT22;45778;51.142;3.732;2024-02-04T00:42:49;10.40;99.90
59923;DHT22;45778;51.142;3.732;2024-02-04T00:45:15;10.50;99.90
59923;DHT22;45778;51.142;3.732;2024-02-04T00:47:41;10.50;99.90
59923;DHT22;45778;51.142;3.732;2024-02-04T00:50:07;10.50;99.90
59923;DHT22;45778;51.142;3.732;2024-02-04T00:52:33;10.50;99.90
59923;DHT22;45778;51.142;3.732;2024-02-04T00:54:59;10.50;99.90
59923;DHT22;45778;51.142;3.732;2024-02-04T00:57:25;10.50;99.90
59923;DHT22;45778;51.142;3.732;2024-02-04T00:59:51;10.50;99.90
59923;DHT22;45778;51.142;3.732;2024-02-04T01:02:16;10.50;99.90
59923;DHT22;45778;51.142;3.732;2024-02-04T01:04:42;10.50;99.90
59923;DHT22;45778;51.142;3.732;2024-02-04T01:07:08;10.50;99.90
59923;DHT22;45778;51.142;3.732;2024-02-04T01:09:34;10.50;99.90
59923;DHT22;45778;51.142;3.732;2024-02-04T01:11:59;10.60;99.90
59923;DHT22;45778;51.142;3.732;2024-02-04T01:14:25;10.50;99.90
59923;DHT22;45778;51.142;3.732;2024-02-04T01:16:51;10.60;99.90
59923;DHT22;45778;51.142;3.732;2024-02-04T01:19:17;10.60;99.90
59923;DHT22;45778;51.142;3.732;2024-02-04T01:21:43;10.60;99.90
59923;DHT22;45778;51.142;3.732;2024-02-04T01:24:10;10.60;99.90
59923;DHT22;45778;51.142;3.732;2024-02-04T01:26:35;10.60;99.90
59923;DHT22;45778;51.142;3.732;2024-02-04T01:29:01;10.60;99.90
59923;DHT22;45778;51.142;3.732;2024-02-04T01:31:27;10.60;99.90
59923;DHT22;45778;51.142;3.732;2024-02-04T01:33:52;10.60;99.90
59923;DHT22;45778;51.142;3.732;2024-02-04T01:36:18;10.60;99.90
59923;DHT22;45778;51.142;3.732;2024-02-04T01:38:44;10.60;99.90
59923;DHT22;45778;51.142;3.732;2024-02-04T01:41:09;10.60;99.90
59923;DHT22;45778;51.142;3.732;2024-02-04T01:43:35;10.60;99.90
59923;DHT22;45778;51.142;3.732;2024-02-04T01:46:01;10.60;99.90
59923;DHT22;45778;51.142;3.732;2024-02-04T01:48:27;10.60;99.90
59923;DHT22;45778;51.142;3.732;2024-02-04T01:50:55;10.60;99.90
59923;DHT22;45778;51.142;3.732;2024-02-04T01:53:24;10.60;99.90
59923;DHT22;45778;51.142;3.732;2024-02-04T01:55:51;10.60;99.90
59923;DHT22;45778;51.142;3.732;2024-02-04T01:58:17;10.60;99.90
59923;DHT22;45778;51.142;3.732;2024-02-04T02:00:43;10.60;99.90
59923;DHT22;45778;51.142;3.732;2024-02-04T02:03:11;10.50;99.90
59923;DHT22;45778;51.142;3.732;2024-02-04T02:05:39;10.50;99.90
59923;DHT22;45778;51.142;3.732;2024-02-04T02:08:05;10.50;99.90
59923;DHT22;45778;51.142;3.732;2024-02-04T02:10:31;10.50;99.90
59923;DHT22;45778;51.142;3.732;2024-02-04T02:13:11;10.60;99.90
59923;DHT22;45778;51.142;3.732;2024-02-04T02:15:52;10.50;99.90
59923;DHT22;45778;51.142;3.732;2024-02-04T02:18:37;10.50;99.90
59923;DHT22;45778;51.142;3.732;2024-02-04T02:26:35;10.60;99.90
59923;DHT22;45778;51.142;3.732;2024-02-04T02:29:04;10.60;99.90
59923;DHT22;45778;51.142;3.732;2024-02-04T02:31:31;10.60;99.90
59923;DHT22;45778;51.142;3.732;2024-02-04T02:33:57;10.70;99.90
59923;DHT22;45778;51.142;3.732;2024-02-04T02:36:23;10.60;99.90
59923;DHT22;45778;51.142;3.732;2024-02-04T02:39:03;10.70;99.90
59923;DHT22;45778;51.142;3.732;2024-02-04T02:41:32;10.70;99.90
59923;DHT22;45778;51.142;3.732;2024-02-04T02:44:00;10.70;99.90
59923;DHT22;45778;51.142;3.732;2024-02-04T02:46:27;10.70;99.90
59923;DHT22;45778;51.142;3.732;2024-02-04T02:48:53;10.70;99.90
59923;DHT22;45778;51.142;3.732;2024-02-04T02:51:19;10.70;99.90
59923;DHT22;45778;51.142;3.732;2024-02-04T02:53:44;10.70;99.90
59923;DHT22;45778;51.142;3.732;2024-02-04T02:56:10;10.70;99.90
59923;DHT22;45778;51.142;3.732;2024-02-04T02:58:37;10.60;99.90
59923;DHT22;45778;51.142;3.732;2024-02-04T03:01:03;10.60;99.90
59923;DHT22;45778;51.142;3.732;2024-02-04T03:03:28;10.60;99.90
59923;DHT22;45778;51.142;3.732;2024-02-04T03:05:54;10.50;99.90
59923;DHT22;45778;51.142;3.732;2024-02-04T03:08:19;10.40;99.90
59923;DHT22;45778;51.142;3.732;2024-02-04T03:10:45;10.40;99.90
59923;DHT22;45778;51.142;3.732;2024-02-04T03:13:11;10.40;99.90
59923;DHT22;45778;51.142;3.732;2024-02-04T03:15:36;10.30;99.90
59923;DHT22;45778;51.142;3.732;2024-02-04T03:18:02;10.30;99.90
59923;DHT22;45778;51.142;3.732;2024-02-04T03:20:28;10.30;99.90
59923;DHT22;45778;51.142;3.732;2024-02-04T03:22:55;10.30;99.90
59923;DHT22;45778;51.142;3.732;2024-02-04T03:25:21;10.30;99.90
59923;DHT22;45778;51.142;3.732;2024-02-04T03:27:48;10.30;99.90
59923;DHT22;45778;51.142;3.732;2024-02-04T03:30:14;10.20;99.90
59923;DHT22;45778;51.142;3.732;2024-02-04T03:32:39;10.20;99.90
59923;DHT22;45778;51.142;3.732;2024-02-04T03:35:05;10.20;99.90
59923;DHT22;45778;51.142;3.732;2024-02-04T03:37:31;10.20;99.90
59923;DHT22;45778;51.142;3.732;2024-02-04T03:39:56;10.20;99.90
59923;DHT22;45778;51.142;3.732;2024-02-04T03:42:22;10.20;99.90
59923;DHT22;45778;51.142;3.732;2024-02-04T03:44:48;10.30;99.90
59923;DHT22;45778;51.142;3.732;2024-02-04T03:47:14;10.20;99.90
59923;DHT22;45778;51.142;3.732;2024-02-04T03:49:40;10.20;99.90
59923;DHT22;45778;51.142;3.732;2024-02-04T03:52:05;10.20;99.90
59923;DHT22;45778;51.142;3.732;2024-02-04T03:54:31;10.30;99.90
59923;DHT22;45778;51.142;3.732;2024-02-04T03:56:57;10.30;99.90
59923;DHT22;45778;51.142;3.732;2024-02-04T03:59:22;10.30;99.90
59923;DHT22;45778;51.142;3.732;2024-02-04T04:01:49;10.30;99.90
59923;DHT22;45778;51.142;3.732;2024-02-04T04:04:15;10.30;99.90
59923;DHT22;45778;51.142;3.732;2024-02-04T04:06:42;10.40;99.90
59923;DHT22;45778;51.142;3.732;2024-02-04T04:09:07;10.40;99.90
59923;DHT22;45778;51.142;3.732;2024-02-04T04:11:33;10.40;99.90
59923;DHT22;45778;51.142;3.732;2024-02-04T04:13:59;10.40;99.90
59923;DHT22;45778;51.142;3.732;2024-02-04T04:16:24;10.40;99.90
59923;DHT22;45778;51.142;3.732;2024-02-04T04:18:50;10.50;99.90
59923;DHT22;45778;51.142;3.732;2024-02-04T04:21:16;10.50;99.90
59923;DHT22;45778;51.142;3.732;2024-02-04T04:23:42;10.40;99.90
59923;DHT22;45778;51.142;3.732;2024-02-04T04:26:07;10.50;99.90
59923;DHT22;45778;51.142;3.732;2024-02-04T04:28:33;10.50;99.90
59923;DHT22;45778;51.142;3.732;2024-02-04T04:30:59;10.50;99.90
59923;DHT22;45778;51.142;3.732;2024-02-04T04:33:24;10.50;99.90
59923;DHT22;45778;51.142;3.732;2024-02-04T04:35:50;10.50;99.90
59923;DHT22;45778;51.142;3.732;2024-02-04T04:38:16;10.50;99.90
59923;DHT22;45778;51.142;3.732;2024-02-04T04:40:41;10.50;99.90
59923;DHT22;45778;51.142;3.732;2024-02-04T04:43:07;10.40;99.90
59923;DHT22;45778;51.142;3.732;2024-02-04T04:45:33;10.40;99.90
59923;DHT22;45778;51.142;3.732;2024-02-04T04:47:58;10.40;99.90
59923;DHT22;45778;51.142;3.732;2024-02-04T04:50:24;10.50;99.90
59923;DHT22;45778;51.142;3.732;2024-02-04T04:52:50;10.40;99.90
59923;DHT22;45778;51.142;3.732;2024-02-04T04:55:15;10.40;99.90
59923;DHT22;45778;51.142;3.732;2024-02-04T04:57:41;10.50;99.90
59923;DHT22;45778;51.142;3.732;2024-02-04T05:00:07;10.50;99.90
59923;DHT22;45778;51.142;3.732;2024-02-04T05:02:36;10.50;99.90
59923;DHT22;45778;51.142;3.732;2024-02-04T05:05:01;10.50;99.90
59923;DHT22;45778;51.142;3.732;2024-02-04T05:07:27;10.50;99.90
59923;DHT22;45778;51.142;3.732;2024-02-04T05:09:53;10.50;99.90
59923;DHT22;45778;51.142;3.732;2024-02-04T05:12:18;10.50;99.90
59923;DHT22;45778;51.142;3.732;2024-02-04T05:14:44;10.50;99.90
59923;DHT22;45778;51.142;3.732;2024-02-04T05:17:10;10.50;99.90
59923;DHT22;45778;51.142;3.732;2024-02-04T05:19:35;10.50;99.90
59923;DHT22;45778;51.142;3.732;2024-02-04T05:22:02;10.50;99.90
59923;DHT22;45778;51.142;3.732;2024-02-04T05:24:28;10.60;99.90
59923;DHT22;45778;51.142;3.732;2024-02-04T05:26:54;10.50;99.90
59923;DHT22;45778;51.142;3.732;2024-02-04T05:29:20;10.50;99.90
59923;DHT22;45778;51.142;3.732;2024-02-04T05:31:45;10.50;99.90
59923;DHT22;45778;51.142;3.732;2024-02-04T05:34:11;10.50;99.90
59923;DHT22;45778;51.142;3.732;2024-02-04T05:36:37;10.50;99.90
59923;DHT22;45778;51.142;3.732;2024-02-04T05:39:14;10.50;99.90
59923;DHT22;45778;51.142;3.732;2024-02-04T05:41:40;10.50;99.90
59923;DHT22;45778;51.142;3.732;2024-02-04T05:44:06;10.40;99.90
59923;DHT22;45778;51.142;3.732;2024-02-04T05:46:37;10.40;99.90
59923;DHT22;45778;51.142;3.732;2024-02-04T05:49:03;10.40;99.90
59923;DHT22;45778;51.142;3.732;2024-02-04T05:51:28;10.30;99.90
59923;DHT22;45778;51.142;3.732;2024-02-04T05:53:54;10.30;99.90
59923;DHT22;45778;51.142;3.732;2024-02-04T05:56:20;10.30;99.90
59923;DHT22;45778;51.142;3.732;2024-02-04T05:58:47;10.30;99.90
59923;DHT22;45778;51.142;3.732;2024-02-04T06:01:13;10.30;99.90
59923;DHT22;45778;51.142;3.732;2024-02-04T06:03:41;10.30;99.90
59923;DHT22;45778;51.142;3.732;2024-02-04T06:06:08;10.30;99.90
59923;DHT22;45778;51.142;3.732;2024-02-04T06:08:33;10.30;99.90
59923;DHT22;45778;51.142;3.732;2024-02-04T06:10:59;10.20;99.90
59923;DHT22;45778;51.142;3.732;2024-02-04T06:13:25;10.30;99.90
59923;DHT22;45778;51.142;3.732;2024-02-04T06:15:50;10.20;99.90
59923;DHT22;45778;51.142;3.732;2024-02-04T06:18:16;10.20;99.90
59923;DHT22;45778;51.142;3.732;2024-02-04T06:20:43;10.20;99.90
59923;DHT22;45778;51.142;3.732;2024-02-04T06:23:08;10.20;99.90
59923;DHT22;45778;51.142;3.732;2024-02-04T06:25:34;10.30;99.90
59923;DHT22;45778;51.142;3.732;2024-02-04T06:27:59;10.30;99.90
59923;DHT22;45778;51.142;3.732;2024-02-04T06:30:25;10.30;99.90
59923;DHT22;45778;51.142;3.732;2024-02-04T06:32:51;10.30;99.90
59923;DHT22;45778;51.142;3.732;2024-02-04T06:35:16;10.30;99.90
59923;DHT22;45778;51.142;3.732;2024-02-04T06:37:42;10.30;99.90
59923;DHT22;45778;51.142;3.732;2024-02-04T06:40:11;10.40;99.90
59923;DHT22;45778;51.142;3.732;2024-02-04T06:42:36;10.40;99.90
59923;DHT22;45778;51.142;3.732;2024-02-04T06:45:02;10.40;99.90
59923;DHT22;45778;51.142;3.732;2024-02-04T06:47:28;10.40;99.90
59923;DHT22;45778;51.142;3.732;2024-02-04T06:49:54;10.40;99.90
59923;DHT22;45778;51.142;3.732;2024-02-04T06:52:20;10.50;99.90
59923;DHT22;45778;51.142;3.732;2024-02-04T06:54:45;10.50;99.90
59923;DHT22;45778;51.142;3.732;2024-02-04T06:57:11;10.50;99.90
59923;DHT22;45778;51.142;3.732;2024-02-04T06:59:36;10.50;99.90
59923;DHT22;45778;51.142;3.732;2024-02-04T07:02:02;10.50;99.90
59923;DHT22;45778;51.142;3.732;2024-02-04T07:04:28;10.50;99.90
59923;DHT22;45778;51.142;3.732;2024-02-04T07:06:53;10.60;99.90
59923;DHT22;45778;51.142;3.732;2024-02-04T07:09:19;10.50;99.90
59923;DHT22;45778;51.142;3.732;2024-02-04T07:11:45;10.50;99.90
59923;DHT22;45778;51.142;3.732;2024-02-04T07:14:11;10.50;99.90
59923;DHT22;45778;51.142;3.732;2024-02-04T07:16:37;10.60;99.90
59923;DHT22;45778;51.142;3.732;2024-02-04T07:19:02;10.60;99.90
59923;DHT22;45778;51.142;3.732;2024-02-04T07:21:28;10.60;99.90
59923;DHT22;45778;51.142;3.732;2024-02-04T07:23:54;10.60;99.90
59923;DHT22;45778;51.142;3.732;2024-02-04T07:26:19;10.60;99.90
59923;DHT22;45778;51.142;3.732;2024-02-04T07:28:47;10.60;99.90
59923;DHT22;45778;51.142;3.732;2024-02-04T07:31:12;10.60;99.90
59923;DHT22;45778;51.142;3.732;2024-02-04T07:33:38;10.60;99.90
59923;DHT22;45778;51.142;3.732;2024-02-04T07:36:04;10.60;99.90
59923;DHT22;45778;51.142;3.732;2024-02-04T07:38:29;10.60;99.90
59923;DHT22;45778;51.142;3.732;2024-02-04T07:40:55;10.70;99.90
59923;DHT22;45778;51.142;3.732;2024-02-04T07:43:24;10.70;99.90
59923;DHT22;45778;51.142;3.732;2024-02-04T07:45:49;10.80;99.90
59923;DHT22;45778;51.142;3.732;2024-02-04T07:48:16;10.80;99.90
59923;DHT22;45778;51.142;3.732;2024-02-04T07:50:42;10.80;99.90
59923;DHT22;45778;51.142;3.732;2024-02-04T07:53:07;10.80;99.90
59923;DHT22;45778;51.142;3.732;2024-02-04T07:55:33;10.80;99.90
59923;DHT22;45778;51.142;3.732;2024-02-04T07:57:59;10.80;99.90
59923;DHT22;45778;51.142;3.732;2024-02-04T08:00:25;10.80;99.90
59923;DHT22;45778;51.142;3.732;2024-02-04T08:02:50;10.80;99.90
59923;DHT22;45778;51.142;3.732;2024-02-04T08:05:16;10.90;99.90
59923;DHT22;45778;51.142;3.732;2024-02-04T08:07:42;10.90;99.90
59923;DHT22;45778;51.142;3.732;2024-02-04T08:10:08;10.90;99.90
59923;DHT22;45778;51.142;3.732;2024-02-04T08:12:33;11.00;99.90
59923;DHT22;45778;51.142;3.732;2024-02-04T08:14:59;10.90;99.90
59923;DHT22;45778;51.142;3.732;2024-02-04T08:17:25;10.90;99.90
59923;DHT22;45778;51.142;3.732;2024-02-04T08:19:51;10.90;99.90
59923;DHT22;45778;51.142;3.732;2024-02-04T08:22:16;10.90;99.90
59923;DHT22;45778;51.142;3.732;2024-02-04T08:24:43;10.90;99.90
59923;DHT22;45778;51.142;3.732;2024-02-04T08:27:09;10.90;99.90
59923;DHT22;45778;51.142;3.732;2024-02-04T08:29:35;10.90;99.90
59923;DHT22;45778;51.142;3.732;2024-02-04T08:32:00;10.90;99.90
59923;DHT22;45778;51.142;3.732;2024-02-04T08:34:26;10.90;99.90
59923;DHT22;45778;51.142;3.732;2024-02-04T08:36:52;10.90;99.90
59923;DHT22;45778;51.142;3.732;2024-02-04T08:39:18;10.90;99.90
59923;DHT22;45778;51.142;3.732;2024-02-04T08:41:44;10.90;99.90
59923;DHT22;45778;51.142;3.732;2024-02-04T08:44:09;10.90;99.90
59923;DHT22;45778;51.142;3.732;2024-02-04T08:46:35;10.90;99.90
59923;DHT22;45778;51.142;3.732;2024-02-04T08:49:01;11.00;99.90
59923;DHT22;45778;51.142;3.732;2024-02-04T08:51:26;11.00;99.90
59923;DHT22;45778;51.142;3.732;2024-02-04T08:53:52;11.00;99.90
59923;DHT22;45778;51.142;3.732;2024-02-04T08:56:18;11.10;99.90
59923;DHT22;45778;51.142;3.732;2024-02-04T08:58:45;11.10;99.90
59923;DHT22;45778;51.142;3.732;2024-02-04T09:01:11;11.10;99.90
59923;DHT22;45778;51.142;3.732;2024-02-04T09:03:37;11.20;99.90
59923;DHT22;45778;51.142;3.732;2024-02-04T09:06:03;11.20;99.90
59923;DHT22;45778;51.142;3.732;2024-02-04T09:08:28;11.10;99.90
59923;DHT22;45778;51.142;3.732;2024-02-04T09:10:54;11.10;99.90
59923;DHT22;45778;51.142;3.732;2024-02-04T09:13:20;11.10;99.90
59923;DHT22;45778;51.142;3.732;2024-02-04T09:15:46;11.20;99.90
59923;DHT22;45778;51.142;3.732;2024-02-04T09:18:11;11.20;99.90
59923;DHT22;45778;51.142;3.732;2024-02-04T09:20:37;11.20;99.90
59923;DHT22;45778;51.142;3.732;2024-02-04T09:23:03;11.20;99.90
59923;DHT22;45778;51.142;3.732;2024-02-04T09:25:30;11.30;99.90
59923;DHT22;45778;51.142;3.732;2024-02-04T09:27:56;11.30;99.90
59923;DHT22;45778;51.142;3.732;2024-02-04T09:30:21;11.30;99.90
59923;DHT22;45778;51.142;3.732;2024-02-04T09:32:47;11.40;99.90
59923;DHT22;45778;51.142;3.732;2024-02-04T09:35:13;11.50;99.90
59923;DHT22;45778;51.142;3.732;2024-02-04T09:37:38;11.60;99.90
59923;DHT22;45778;51.142;3.732;2024-02-04T09:40:04;11.60;99.90
59923;DHT22;45778;51.142;3.732;2024-02-04T09:42:33;11.60;99.90
59923;DHT22;45778;51.142;3.732;2024-02-04T09:45:00;11.60;99.90
59923;DHT22;45778;51.142;3.732;2024-02-04T09:47:26;11.80;99.90
59923;DHT22;45778;51.142;3.732;2024-02-04T09:49:53;11.80;99.90
59923;DHT22;45778;51.142;3.732;2024-02-04T09:52:30;11.90;99.90
59923;DHT22;45778;51.142;3.732;2024-02-04T09:55:02;12.00;99.90
59923;DHT22;45778;51.142;3.732;2024-02-04T09:57:35;12.10;99.90
59923;DHT22;45778;51.142;3.732;2024-02-04T10:00:03;12.20;99.90
59923;DHT22;45778;51.142;3.732;2024-02-04T10:02:33;12.20;99.90
59923;DHT22;45778;51.142;3.732;2024-02-04T10:04:59;12.00;99.90
59923;DHT22;45778;51.142;3.732;2024-02-04T10:07:26;12.10;99.90
59923;DHT22;45778;51.142;3.732;2024-02-04T10:09:53;12.00;99.90
59923;DHT22;45778;51.142;3.732;2024-02-04T10:12:19;11.90;99.90
59923;DHT22;45778;51.142;3.732;2024-02-04T10:14:45;11.90;99.90
59923;DHT22;45778;51.142;3.732;2024-02-04T10:17:15;11.90;99.90
59923;DHT22;45778;51.142;3.732;2024-02-04T10:19:40;11.90;99.90
59923;DHT22;45778;51.142;3.732;2024-02-04T10:22:06;11.90;99.90
59923;DHT22;45778;51.142;3.732;2024-02-04T10:24:32;11.90;99.90
59923;DHT22;45778;51.142;3.732;2024-02-04T10:26:58;12.00;99.90
59923;DHT22;45778;51.142;3.732;2024-02-04T10:29:24;12.10;99.90
59923;DHT22;45778;51.142;3.732;2024-02-04T10:31:56;12.10;99.90
59923;DHT22;45778;51.142;3.732;2024-02-04T10:34:26;12.20;99.90
59923;DHT22;45778;51.142;3.732;2024-02-04T10:36:52;12.20;99.90
59923;DHT22;45778;51.142;3.732;2024-02-04T10:39:18;12.30;99.90
59923;DHT22;45778;51.142;3.732;2024-02-04T10:41:49;12.40;99.90
59923;DHT22;45778;51.142;3.732;2024-02-04T10:44:21;12.40;99.90
59923;DHT22;45778;51.142;3.732;2024-02-04T10:46:47;12.40;99.90
59923;DHT22;45778;51.142;3.732;2024-02-04T10:49:15;12.30;99.90
59923;DHT22;45778;51.142;3.732;2024-02-04T10:51:45;12.20;99.90
59923;DHT22;45778;51.142;3.732;2024-02-04T10:54:20;12.20;99.90
59923;DHT22;45778;51.142;3.732;2024-02-04T10:56:55;12.20;99.90
59923;DHT22;45778;51.142;3.732;2024-02-04T10:59:21;12.30;99.90
59923;DHT22;45778;51.142;3.732;2024-02-04T11:01:47;12.20;99.90
59923;DHT22;45778;51.142;3.732;2024-02-04T11:04:14;12.30;99.90
59923;DHT22;45778;51.142;3.732;2024-02-04T11:06:44;12.30;99.90
59923;DHT22;45778;51.142;3.732;2024-02-04T11:09:11;12.40;99.90
59923;DHT22;45778;51.142;3.732;2024-02-04T11:11:38;12.40;99.90
59923;DHT22;45778;51.142;3.732;2024-02-04T11:14:08;12.40;99.90
59923;DHT22;45778;51.142;3.732;2024-02-04T11:27:53;12.20;99.90
59923;DHT22;45778;51.142;3.732;2024-02-04T11:30:19;12.10;99.90
59923;DHT22;45778;51.142;3.732;2024-02-04T11:32:45;12.20;99.90
59923;DHT22;45778;51.142;3.732;2024-02-04T11:35:12;12.10;99.90
59923;DHT22;45778;51.142;3.732;2024-02-04T11:37:38;12.10;99.90
59923;DHT22;45778;51.142;3.732;2024-02-04T11:40:07;12.00;99.90
59923;DHT22;45778;51.142;3.732;2024-02-04T11:42:33;12.00;99.90
59923;DHT22;45778;51.142;3.732;2024-02-04T11:45:12;12.00;99.90
59923;DHT22;45778;51.142;3.732;2024-02-04T11:47:39;12.10;99.90
59923;DHT22;45778;51.142;3.732;2024-02-04T11:50:06;12.20;99.90
59923;DHT22;45778;51.142;3.732;2024-02-04T11:52:32;12.20;99.90
59923;DHT22;45778;51.142;3.732;2024-02-04T11:54:58;12.20;99.90
59923;DHT22;45778;51.142;3.732;2024-02-04T11:57:24;12.20;99.90
59923;DHT22;45778;51.142;3.732;2024-02-04T11:59:50;12.30;99.90
59923;DHT22;45778;51.142;3.732;2024-02-04T12:02:18;12.40;99.90
59923;DHT22;45778;51.142;3.732;2024-02-04T12:04:48;12.40;99.90
59923;DHT22;45778;51.142;3.732;2024-02-04T12:07:14;12.30;99.90
59923;DHT22;45778;51.142;3.732;2024-02-04T12:09:40;12.30;99.90
59923;DHT22;45778;51.142;3.732;2024-02-04T12:12:06;12.30;99.90
59923;DHT22;45778;51.142;3.732;2024-02-04T12:14:37;12.30;99.90
59923;DHT22;45778;51.142;3.732;2024-02-04T12:17:09;12.30;99.90
59923;DHT22;45778;51.142;3.732;2024-02-04T12:19:35;12.20;99.90
59923;DHT22;45778;51.142;3.732;2024-02-04T12:22:01;12.30;99.90
59923;DHT22;45778;51.142;3.732;2024-02-04T12:24:31;12.40;99.90
59923;DHT22;45778;51.142;3.732;2024-02-04T12:26:56;12.30;99.90
59923;DHT22;45778;51.142;3.732;2024-02-04T12:29:22;12.20;99.90
59923;DHT22;45778;51.142;3.732;2024-02-04T12:31:48;12.20;99.90
59923;DHT22;45778;51.142;3.732;2024-02-04T12:34:22;12.20;99.90
59923;DHT22;45778;51.142;3.732;2024-02-04T12:36:57;12.20;99.90
59923;DHT22;45778;51.142;3.732;2024-02-04T12:39:23;12.10;99.90
59923;DHT22;45778;51.142;3.732;2024-02-04T12:41:51;12.10;99.90
59923;DHT22;45778;51.142;3.732;2024-02-04T12:44:18;12.10;99.90
59923;DHT22;45778;51.142;3.732;2024-02-04T12:46:43;12.00;99.90
59923;DHT22;45778;51.142;3.732;2024-02-04T12:49:10;12.00;99.90
59923;DHT22;45778;51.142;3.732;2024-02-04T12:51:36;12.00;99.90
59923;DHT22;45778;51.142;3.732;2024-02-04T12:54:11;12.00;99.90
59923;DHT22;45778;51.142;3.732;2024-02-04T12:56:52;12.00;99.90
59923;DHT22;45778;51.142;3.732;2024-02-04T12:59:32;12.00;99.90
59923;DHT22;45778;51.142;3.732;2024-02-04T13:02:07;12.00;99.90
59923;DHT22;45778;51.142;3.732;2024-02-04T13:04:36;12.00;99.90
59923;DHT22;45778;51.142;3.732;2024-02-04T13:07:07;12.00;99.90
59923;DHT22;45778;51.142;3.732;2024-02-04T13:09:33;12.00;99.90
59923;DHT22;45778;51.142;3.732;2024-02-04T13:12:09;12.00;99.90
59923;DHT22;45778;51.142;3.732;2024-02-04T13:14:44;11.90;99.90
59923;DHT22;45778;51.142;3.732;2024-02-04T13:17:10;11.90;99.90
59923;DHT22;45778;51.142;3.732;2024-02-04T13:19:37;11.90;99.90
59923;DHT22;45778;51.142;3.732;2024-02-04T13:22:07;11.90;99.90
59923;DHT22;45778;51.142;3.732;2024-02-04T13:24:35;11.90;99.90
59923;DHT22;45778;51.142;3.732;2024-02-04T13:27:01;12.00;99.90
59923;DHT22;45778;51.142;3.732;2024-02-04T13:29:28;12.00;99.90
59923;DHT22;45778;51.142;3.732;2024-02-04T13:31:54;12.10;99.90
59923;DHT22;45778;51.142;3.732;2024-02-04T13:34:21;12.10;99.90
59923;DHT22;45778;51.142;3.732;2024-02-04T13:36:47;12.10;99.90
59923;DHT22;45778;51.142;3.732;2024-02-04T13:39:13;12.20;99.90
59923;DHT22;45778;51.142;3.732;2024-02-04T13:41:40;12.20;99.90
59923;DHT22;45778;51.142;3.732;2024-02-04T13:44:06;12.20;99.90
59923;DHT22;45778;51.142;3.732;2024-02-04T13:46:32;12.10;99.90
59923;DHT22;45778;51.142;3.732;2024-02-04T13:48:58;12.20;99.90
59923;DHT22;45778;51.142;3.732;2024-02-04T13:51:23;12.20;99.90
59923;DHT22;45778;51.142;3.732;2024-02-04T13:53:49;12.30;99.90
59923;DHT22;45778;51.142;3.732;2024-02-04T13:56:15;12.30;99.90
59923;DHT22;45778;51.142;3.732;2024-02-04T13:58:44;12.40;99.90
59923;DHT22;45778;51.142;3.732;2024-02-04T14:01:10;12.50;99.90
59923;DHT22;45778;51.142;3.732;2024-02-04T14:03:35;12.50;99.90
59923;DHT22;45778;51.142;3.732;2024-02-04T14:06:01;12.50;99.90
59923;DHT22;45778;51.142;3.732;2024-02-04T14:08:29;12.40;99.90
59923;DHT22;45778;51.142;3.732;2024-02-04T14:10:58;12.30;99.90
59923;DHT22;45778;51.142;3.732;2024-02-04T14:13:23;12.30;99.90
59923;DHT22;45778;51.142;3.732;2024-02-04T14:15:49;12.30;99.90
59923;DHT22;45778;51.142;3.732;2024-02-04T14:18:14;12.30;99.90
59923;DHT22;45778;51.142;3.732;2024-02-04T14:20:40;12.30;99.90
59923;DHT22;45778;51.142;3.732;2024-02-04T14:23:06;12.40;99.90
59923;DHT22;45778;51.142;3.732;2024-02-04T14:25:31;12.40;99.90
59923;DHT22;45778;51.142;3.732;2024-02-04T14:27:57;12.40;99.90
59923;DHT22;45778;51.142;3.732;2024-02-04T14:30:23;12.40;99.90
59923;DHT22;45778;51.142;3.732;2024-02-04T14:32:49;12.40;99.90
59923;DHT22;45778;51.142;3.732;2024-02-04T14:35:14;12.40;99.90
59923;DHT22;45778;51.142;3.732;2024-02-04T14:37:41;12.40;99.90
59923;DHT22;45778;51.142;3.732;2024-02-04T14:40:08;12.40;99.90
59923;DHT22;45778;51.142;3.732;2024-02-04T14:42:34;12.40;99.90
59923;DHT22;45778;51.142;3.732;2024-02-04T14:45:00;12.40;99.90
59923;DHT22;45778;51.142;3.732;2024-02-04T14:47:28;12.30;99.90
59923;DHT22;45778;51.142;3.732;2024-02-04T14:49:54;12.30;99.90
59923;DHT22;45778;51.142;3.732;2024-02-04T14:52:20;12.30;99.90
59923;DHT22;45778;51.142;3.732;2024-02-04T14:54:46;12.20;99.90
59923;DHT22;45778;51.142;3.732;2024-02-04T14:57:12;12.20;99.90
59923;DHT22;45778;51.142;3.732;2024-02-04T14:59:39;12.20;99.90
59923;DHT22;45778;51.142;3.732;2024-02-04T15:02:06;12.10;99.90
59923;DHT22;45778;51.142;3.732;2024-02-04T15:04:32;12.20;99.90
59923;DHT22;45778;51.142;3.732;2024-02-04T15:06:58;12.10;99.90
59923;DHT22;45778;51.142;3.732;2024-02-04T15:09:27;12.10;99.90
59923;DHT22;45778;51.142;3.732;2024-02-04T15:11:53;12.10;99.90
59923;DHT22;45778;51.142;3.732;2024-02-04T15:14:19;12.10;99.90
59923;DHT22;45778;51.142;3.732;2024-02-04T15:16:44;12.00;99.90
59923;DHT22;45778;51.142;3.732;2024-02-04T15:19:10;12.00;99.90
59923;DHT22;45778;51.142;3.732;2024-02-04T15:21:36;11.90;99.90
59923;DHT22;45778;51.142;3.732;2024-02-04T15:24:02;11.90;99.90
59923;DHT22;45778;51.142;3.732;2024-02-04T15:26:34;11.90;99.90
59923;DHT22;45778;51.142;3.732;2024-02-04T15:29:03;11.90;99.90
59923;DHT22;45778;51.142;3.732;2024-02-04T15:31:32;11.80;99.90
59923;DHT22;45778;51.142;3.732;2024-02-04T15:34:02;11.80;99.90
59923;DHT22;45778;51.142;3.732;2024-02-04T15:36:32;11.80;99.90
59923;DHT22;45778;51.142;3.732;2024-02-04T15:38:58;11.80;99.90
59923;DHT22;45778;51.142;3.732;2024-02-04T15:41:23;11.80;99.90
59923;DHT22;45778;51.142;3.732;2024-02-04T15:43:49;11.80;99.90